createdAt,value
2018-06-14T00:00:10.700Z,12.74
2018-06-14T00:02:37.844Z,12.69
2018-06-14T00:05:05.042Z,12.84
2018-06-14T00:07:32.259Z,12.92
2018-06-14T00:09:59.380Z,12.77
2018-06-14T00:12:26.533Z,12.67
2018-06-14T00:14:53.696Z,12.73
2018-06-14T00:17:20.877Z,12.68
2018-06-14T00:19:48.013Z,12.88
2018-06-14T00:22:15.167Z,12.57
2018-06-14T00:24:42.297Z,12.64
2018-06-14T00:27:09.395Z,12.69
2018-06-14T00:29:36.546Z,12.60
2018-06-14T00:32:03.729Z,12.58
2018-06-14T00:34:30.833Z,12.58
2018-06-14T00:37:04.848Z,12.53
2018-06-14T00:39:32.006Z,12.70
2018-06-14T00:41:59.151Z,12.61
2018-06-14T00:44:26.301Z,12.52
2018-06-14T00:46:53.425Z,12.62
2018-06-14T00:49:20.596Z,12.45
2018-06-14T00:51:47.720Z,12.61
2018-06-14T00:54:14.864Z,12.50
2018-06-14T00:56:53.580Z,12.54
2018-06-14T00:59:20.774Z,12.48
2018-06-14T01:01:48.296Z,12.40
2018-06-14T01:04:15.405Z,12.51
2018-06-14T01:06:42.684Z,12.53
2018-06-14T01:09:10.380Z,12.57
2018-06-14T01:11:37.701Z,12.52
2018-06-14T01:14:05.017Z,12.60
2018-06-14T01:16:32.270Z,12.70
2018-06-14T01:18:59.394Z,12.60
2018-06-14T01:21:26.549Z,12.58
2018-06-14T01:23:53.713Z,12.57
2018-06-14T01:26:20.903Z,12.50
2018-06-14T01:28:48.046Z,12.54
2018-06-14T01:31:15.193Z,12.70
2018-06-14T01:33:42.346Z,12.61
2018-06-14T01:36:09.478Z,12.69
2018-06-14T01:38:36.636Z,12.43
2018-06-14T01:41:03.752Z,12.51
2018-06-14T01:43:30.969Z,12.76
2018-06-14T01:45:58.132Z,12.83
2018-06-14T01:48:25.248Z,12.81
2018-06-14T01:50:52.356Z,13.00
2018-06-14T01:53:19.508Z,12.89
2018-06-14T01:55:46.628Z,12.95
2018-06-14T01:58:13.805Z,12.76
2018-06-14T02:00:40.964Z,12.86
2018-06-14T02:03:08.093Z,12.85
2018-06-14T02:05:35.279Z,12.92
2018-06-14T02:08:02.364Z,13.02
2018-06-14T02:10:29.500Z,13.01
2018-06-14T02:12:56.564Z,13.02
2018-06-14T02:15:23.721Z,12.84
2018-06-14T02:17:50.918Z,12.71
2018-06-14T02:20:18.033Z,12.51
2018-06-14T02:22:45.097Z,12.55
2018-06-14T02:25:12.284Z,12.57
2018-06-14T02:27:39.476Z,12.64
2018-06-14T02:30:06.704Z,12.73
2018-06-14T02:32:33.879Z,12.76
2018-06-14T02:35:01.040Z,12.70
2018-06-14T02:37:28.227Z,12.72
2018-06-14T02:39:55.461Z,12.64
2018-06-14T02:42:22.617Z,12.63
2018-06-14T02:44:49.743Z,12.73
2018-06-14T02:47:16.837Z,12.69
2018-06-14T02:49:43.976Z,12.79
2018-06-14T02:52:11.125Z,12.84
2018-06-14T02:54:38.261Z,13.02
2018-06-14T02:57:05.400Z,13.20
2018-06-14T02:59:32.612Z,13.19
2018-06-14T03:01:59.717Z,13.11
2018-06-14T03:04:26.864Z,13.06
2018-06-14T03:06:53.969Z,12.88
2018-06-14T03:09:21.089Z,13.05
2018-06-14T03:11:48.293Z,12.76
2018-06-14T03:14:15.464Z,12.85
2018-06-14T03:16:42.649Z,12.80
2018-06-14T03:19:09.761Z,13.01
2018-06-14T03:21:36.905Z,12.95
2018-06-14T03:24:04.137Z,13.05
2018-06-14T03:26:31.301Z,13.07
2018-06-14T03:28:58.449Z,12.82
2018-06-14T03:31:25.564Z,12.76
2018-06-14T03:33:52.718Z,12.84
2018-06-14T03:36:19.925Z,12.95
2018-06-14T03:38:47.135Z,13.08
2018-06-14T03:41:14.309Z,13.02
2018-06-14T03:43:41.476Z,12.60
2018-06-14T03:46:08.704Z,12.45
2018-06-14T03:48:35.847Z,12.48
2018-06-14T03:51:02.974Z,12.70
2018-06-14T03:53:30.096Z,12.58
2018-06-14T03:55:57.189Z,12.60
2018-06-14T03:58:24.328Z,12.65
2018-06-14T04:00:51.493Z,12.77
2018-06-14T04:03:18.656Z,12.86
2018-06-14T04:05:45.809Z,13.02
2018-06-14T04:08:12.907Z,13.02
2018-06-14T04:10:40.038Z,12.97
2018-06-14T04:13:07.139Z,12.93
2018-06-14T04:15:34.301Z,12.91
2018-06-14T04:18:02.367Z,13.02
2018-06-14T04:20:30.352Z,13.05
2018-06-14T04:22:57.708Z,13.15
2018-06-14T04:25:24.808Z,13.22
2018-06-14T04:27:51.936Z,13.24
2018-06-14T04:30:19.105Z,13.17
2018-06-14T04:32:46.260Z,13.15
2018-06-14T04:35:13.387Z,13.01
2018-06-14T04:37:40.555Z,13.05
2018-06-14T04:40:07.733Z,13.14
2018-06-14T04:42:34.887Z,13.07
2018-06-14T04:45:02.024Z,13.18
2018-06-14T04:47:29.150Z,13.08
2018-06-14T04:49:56.272Z,13.06
2018-06-14T04:52:23.444Z,13.08
2018-06-14T04:54:50.628Z,13.08
2018-06-14T04:57:18.272Z,12.91
2018-06-14T04:59:45.441Z,13.12
2018-06-14T05:02:12.588Z,13.09
2018-06-14T05:04:39.752Z,13.13
2018-06-14T05:07:06.927Z,12.93
2018-06-14T05:09:34.074Z,13.00
2018-06-14T05:12:01.188Z,12.96
2018-06-14T05:14:28.352Z,12.84
2018-06-14T05:16:55.567Z,12.78
2018-06-14T05:19:22.693Z,12.69
2018-06-14T05:21:49.900Z,12.88
2018-06-14T05:24:17.021Z,12.77
2018-06-14T05:26:44.150Z,12.80
2018-06-14T05:29:11.282Z,12.98
2018-06-14T05:31:38.441Z,12.91
2018-06-14T05:34:05.699Z,12.88
2018-06-14T05:36:32.856Z,13.02
2018-06-14T05:39:00.034Z,12.90
2018-06-14T05:41:27.259Z,12.93
2018-06-14T05:43:54.401Z,13.07
2018-06-14T05:46:21.533Z,13.25
2018-06-14T05:48:48.777Z,13.11
2018-06-14T05:51:15.964Z,12.88
2018-06-14T05:53:43.108Z,13.13
2018-06-14T05:56:10.294Z,12.97
2018-06-14T05:58:37.437Z,13.18
2018-06-14T06:01:04.588Z,12.97
2018-06-14T06:03:32.523Z,13.21
2018-06-14T06:05:59.707Z,13.18
2018-06-14T06:08:26.925Z,13.36
2018-06-14T06:10:54.120Z,13.44
2018-06-14T06:13:21.351Z,13.60
2018-06-14T06:15:48.502Z,13.65
2018-06-14T06:18:15.653Z,13.47
2018-06-14T06:20:42.805Z,13.53
2018-06-14T06:23:09.974Z,13.51
2018-06-14T06:25:37.105Z,13.39
2018-06-14T06:28:04.363Z,13.28
2018-06-14T06:30:31.551Z,13.36
2018-06-14T06:32:58.982Z,13.33
2018-06-14T06:35:26.117Z,13.35
2018-06-14T06:37:53.568Z,13.36
2018-06-14T06:40:20.731Z,13.42
2018-06-14T06:42:47.874Z,13.57
2018-06-14T06:45:15.056Z,13.63
2018-06-14T06:47:42.188Z,13.77
2018-06-14T06:50:09.368Z,13.61
2018-06-14T06:52:36.474Z,13.33
2018-06-14T06:55:03.825Z,13.33
2018-06-14T06:57:30.969Z,13.47
2018-06-14T06:59:58.101Z,13.51
2018-06-14T07:02:25.213Z,13.89
2018-06-14T07:04:52.352Z,14.02
2018-06-14T07:07:19.513Z,14.15
2018-06-14T07:09:46.642Z,14.19
2018-06-14T07:12:13.807Z,14.02
2018-06-14T07:14:40.972Z,14.13
2018-06-14T07:17:08.197Z,14.09
2018-06-14T07:19:35.313Z,14.34
2018-06-14T07:22:02.472Z,14.35
2018-06-14T07:24:29.637Z,14.55
2018-06-14T07:26:56.764Z,14.43
2018-06-14T07:29:23.918Z,14.38
2018-06-14T07:31:51.077Z,14.45
2018-06-14T07:34:18.292Z,14.54
2018-06-14T07:36:45.390Z,14.88
2018-06-14T07:39:12.836Z,14.76
2018-06-14T07:41:40.040Z,14.65
2018-06-14T07:44:07.153Z,14.94
2018-06-14T07:46:34.473Z,14.96
2018-06-14T07:49:02.133Z,15.15
2018-06-14T07:51:29.501Z,15.18
2018-06-14T07:53:56.624Z,14.87
2018-06-14T07:56:23.916Z,14.91
2018-06-14T07:58:51.085Z,14.86
2018-06-14T08:01:18.260Z,14.63
2018-06-14T08:03:45.372Z,14.86
2018-06-14T08:06:12.505Z,14.86
2018-06-14T08:08:39.656Z,14.75
2018-06-14T08:11:06.818Z,14.58
2018-06-14T08:13:34.016Z,14.90
2018-06-14T08:16:01.140Z,15.27
2018-06-14T08:18:28.329Z,15.32
2018-06-14T08:20:55.474Z,15.40
2018-06-14T08:23:22.672Z,15.48
2018-06-14T08:25:49.824Z,15.70
2018-06-14T08:28:17.040Z,15.55
2018-06-14T08:30:44.189Z,15.38
2018-06-14T08:33:11.372Z,15.60
2018-06-14T08:35:38.505Z,15.53
2018-06-14T08:38:05.739Z,15.65
2018-06-14T08:40:32.896Z,15.73
2018-06-14T08:43:00.084Z,15.72
2018-06-14T08:45:27.273Z,16.03
2018-06-14T08:47:54.413Z,16.11
2018-06-14T08:50:21.628Z,16.00
2018-06-14T08:52:48.821Z,16.17
2018-06-14T08:55:15.983Z,16.32
2018-06-14T08:57:43.150Z,16.10
2018-06-14T09:00:10.359Z,16.65
2018-06-14T09:02:37.528Z,16.51
2018-06-14T09:05:04.804Z,16.84
2018-06-14T09:07:31.958Z,16.84
2018-06-14T09:09:59.108Z,16.88
2018-06-14T09:12:26.308Z,17.01
2018-06-14T09:14:53.543Z,17.32
2018-06-14T09:17:20.713Z,17.34
2018-06-14T09:19:47.812Z,17.09
2018-06-14T09:22:14.927Z,16.58
2018-06-14T09:24:42.062Z,16.51
2018-06-14T09:27:09.222Z,16.93
2018-06-14T09:29:36.419Z,17.04
2018-06-14T09:32:03.567Z,17.19
2018-06-14T09:34:30.761Z,16.93
2018-06-14T09:36:57.879Z,16.84
2018-06-14T09:39:25.024Z,17.04
2018-06-14T09:41:52.201Z,16.69
2018-06-14T09:44:19.336Z,16.38
2018-06-14T09:46:46.638Z,16.92
2018-06-14T09:49:15.733Z,16.44
2018-06-14T09:51:44.139Z,16.36
2018-06-14T09:54:11.508Z,16.33
2018-06-14T09:56:38.946Z,15.80
2018-06-14T09:59:06.255Z,15.95
2018-06-14T10:01:33.384Z,15.87
2018-06-14T10:04:00.490Z,16.09
2018-06-14T10:06:27.712Z,16.25
2018-06-14T10:08:54.861Z,16.02
2018-06-14T10:11:21.983Z,16.29
2018-06-14T10:13:49.137Z,16.33
2018-06-14T10:16:16.335Z,16.76
2018-06-14T10:18:43.466Z,16.73
2018-06-14T10:21:10.971Z,16.24
2018-06-14T10:23:38.740Z,16.16
2018-06-14T10:26:05.937Z,16.01
2018-06-14T10:28:33.084Z,16.41
2018-06-14T10:31:00.615Z,15.86
2018-06-14T10:33:27.791Z,16.14
2018-06-14T10:35:55.206Z,15.89
2018-06-14T10:38:22.327Z,15.77
2018-06-14T10:40:49.453Z,16.16
2018-06-14T10:43:16.641Z,16.09
2018-06-14T10:45:43.856Z,16.66
2018-06-14T10:48:11.048Z,16.57
2018-06-14T10:50:38.190Z,16.63
2018-06-14T10:53:05.356Z,16.65
2018-06-14T10:55:32.478Z,16.64
2018-06-14T10:57:59.752Z,16.83
2018-06-14T11:00:26.929Z,16.70
2018-06-14T11:02:54.116Z,16.80
2018-06-14T11:05:21.294Z,16.81
2018-06-14T11:07:48.656Z,16.32
2018-06-14T11:10:15.788Z,16.28
2018-06-14T11:12:42.888Z,16.73
2018-06-14T11:15:10.068Z,16.30
2018-06-14T11:17:37.272Z,16.38
2018-06-14T11:20:04.613Z,16.32
2018-06-14T11:22:31.788Z,16.80
2018-06-14T11:25:00.814Z,17.09
2018-06-14T11:27:28.137Z,17.12
2018-06-14T11:29:55.428Z,17.09
2018-06-14T11:32:22.617Z,16.59
2018-06-14T11:34:49.839Z,16.60
2018-06-14T11:37:16.981Z,16.89
2018-06-14T11:39:44.089Z,17.16
2018-06-14T11:42:11.231Z,16.89
2018-06-14T11:44:38.389Z,17.33
2018-06-14T11:47:05.569Z,17.49
2018-06-14T11:49:32.721Z,17.37
2018-06-14T11:51:59.921Z,17.54
2018-06-14T11:54:27.460Z,17.78
2018-06-14T11:56:54.578Z,17.54
2018-06-14T11:59:21.690Z,17.90
2018-06-14T12:01:48.906Z,18.10
2018-06-14T12:04:16.048Z,18.39
2018-06-14T12:06:43.132Z,18.38
2018-06-14T12:09:10.322Z,18.46
2018-06-14T12:11:37.501Z,18.55
2018-06-14T12:14:04.692Z,18.54
2018-06-14T12:16:31.852Z,18.56
2018-06-14T12:18:59.047Z,18.67
2018-06-14T12:21:26.287Z,19.02
2018-06-14T12:23:53.670Z,19.01
2018-06-14T12:26:20.826Z,19.24
2018-06-14T12:28:47.959Z,19.11
2018-06-14T12:31:15.461Z,19.24
2018-06-14T12:33:42.593Z,19.38
2018-06-14T12:36:09.732Z,19.35
2018-06-14T12:38:36.892Z,19.35
2018-06-14T12:41:04.089Z,18.44
2018-06-14T12:43:31.267Z,20.35
2018-06-14T12:45:58.427Z,21.09
2018-06-14T12:48:25.563Z,20.23
2018-06-14T12:50:52.705Z,19.66
2018-06-14T12:53:19.857Z,19.90
2018-06-14T12:55:46.985Z,19.71
2018-06-14T12:58:14.204Z,19.44
2018-06-14T13:00:41.353Z,19.42
2018-06-14T13:03:08.521Z,19.32
2018-06-14T13:05:35.652Z,19.36
2018-06-14T13:08:02.800Z,19.26
2018-06-14T13:10:29.997Z,19.24
2018-06-14T13:12:57.304Z,19.09
2018-06-14T13:15:24.517Z,19.17
2018-06-14T13:17:51.687Z,19.31
2018-06-14T13:20:18.822Z,19.55
2018-06-14T13:22:45.987Z,19.77
2018-06-14T13:25:13.115Z,19.78
2018-06-14T13:27:40.307Z,19.52
2018-06-14T13:30:07.464Z,19.37
2018-06-14T13:32:34.654Z,19.18
2018-06-14T13:35:01.774Z,19.30
2018-06-14T13:37:28.983Z,19.63
2018-06-14T13:39:56.128Z,19.44
2018-06-14T13:42:23.273Z,19.25
2018-06-14T13:44:50.391Z,19.48
2018-06-14T13:47:17.520Z,19.64
2018-06-14T13:49:44.764Z,19.42
2018-06-14T13:52:11.923Z,19.57
2018-06-14T13:54:39.120Z,19.48
2018-06-14T13:57:06.330Z,19.84
2018-06-14T13:59:33.457Z,20.15
2018-06-14T14:02:00.629Z,20.17
2018-06-14T14:04:27.780Z,20.16
2018-06-14T14:07:00.632Z,20.19
2018-06-14T14:09:27.775Z,20.26
2018-06-14T14:11:54.930Z,20.89
2018-06-14T14:14:22.089Z,20.25
2018-06-14T14:16:49.263Z,20.65
2018-06-14T14:19:16.439Z,20.49
2018-06-14T14:21:43.591Z,20.32
2018-06-14T14:24:10.733Z,20.27
2018-06-14T14:26:38.018Z,20.32
2018-06-14T14:29:05.144Z,20.99
2018-06-14T14:31:32.313Z,21.66
2018-06-14T14:33:59.442Z,21.96
2018-06-14T14:36:26.632Z,22.51
2018-06-14T14:38:53.769Z,22.22
2018-06-14T14:41:20.922Z,21.97
2018-06-14T14:43:48.189Z,22.30
2018-06-14T14:46:15.388Z,22.35
2018-06-14T14:48:44.276Z,21.21
2018-06-14T14:51:11.444Z,21.98
2018-06-14T14:53:38.662Z,21.48
2018-06-14T14:56:05.823Z,20.33
2018-06-14T14:58:33.124Z,19.72
2018-06-14T15:01:00.228Z,19.89
2018-06-14T15:03:27.417Z,20.13
2018-06-14T15:05:54.683Z,20.10
2018-06-14T15:08:22.067Z,19.95
2018-06-14T15:10:49.245Z,19.98
2018-06-14T15:13:16.423Z,20.01
2018-06-14T15:15:43.625Z,19.90
2018-06-14T15:18:10.796Z,20.18
2018-06-14T15:20:37.937Z,20.43
2018-06-14T15:23:05.219Z,21.08
2018-06-14T15:25:32.428Z,21.42
2018-06-14T15:27:59.577Z,22.01
2018-06-14T15:30:26.838Z,21.93
2018-06-14T15:32:54.078Z,21.29
2018-06-14T15:35:21.229Z,20.49
2018-06-14T15:37:48.402Z,20.38
2018-06-14T15:40:15.609Z,20.62
2018-06-14T15:42:42.861Z,20.43
2018-06-14T15:45:09.985Z,20.31
2018-06-14T15:47:37.159Z,20.20
2018-06-14T15:50:04.493Z,20.40
2018-06-14T15:52:31.583Z,20.40
2018-06-14T15:55:10.306Z,20.11
2018-06-14T15:57:37.478Z,20.31
2018-06-14T16:00:05.029Z,20.47
2018-06-14T16:02:32.200Z,20.60
2018-06-14T16:04:59.545Z,20.87
2018-06-14T16:07:26.732Z,20.80
2018-06-14T16:09:53.875Z,20.79
2018-06-14T16:12:21.021Z,20.56
2018-06-14T16:14:48.140Z,20.38
2018-06-14T16:17:15.337Z,20.43
2018-06-14T16:19:42.496Z,20.47
2018-06-14T16:22:09.620Z,20.31
2018-06-14T16:24:36.816Z,20.05
2018-06-14T16:27:03.950Z,20.00
2018-06-14T16:29:31.126Z,19.96
2018-06-14T16:31:58.296Z,19.84
2018-06-14T16:34:25.451Z,19.84
2018-06-14T16:36:52.585Z,19.77
2018-06-14T16:39:20.136Z,19.96
2018-06-14T16:41:47.282Z,19.89
2018-06-14T16:44:14.437Z,19.57
2018-06-14T16:46:41.579Z,19.63
2018-06-14T16:49:08.717Z,19.64
2018-06-14T16:51:36.123Z,19.55
2018-06-14T16:54:03.315Z,19.69
2018-06-14T16:56:30.493Z,19.60
2018-06-14T16:58:57.719Z,19.70
2018-06-14T17:01:24.976Z,19.66
2018-06-14T17:03:52.190Z,19.75
2018-06-14T17:06:19.443Z,19.60
2018-06-14T17:08:46.874Z,19.39
2018-06-14T17:11:14.000Z,19.34
2018-06-14T17:13:41.208Z,19.12
2018-06-14T17:16:08.478Z,19.18
2018-06-14T17:18:35.632Z,19.13
2018-06-14T17:21:02.814Z,19.18
2018-06-14T17:23:29.987Z,19.15
2018-06-14T17:25:57.241Z,19.09
2018-06-14T17:28:24.475Z,19.16
2018-06-14T17:30:51.712Z,19.05
2018-06-14T17:33:18.876Z,19.08
2018-06-14T17:35:46.033Z,18.93
2018-06-14T17:38:13.237Z,18.98
2018-06-14T17:40:40.621Z,19.03
2018-06-14T17:43:07.772Z,19.10
2018-06-14T17:45:34.980Z,19.02
2018-06-14T17:48:02.202Z,19.03
2018-06-14T17:50:29.340Z,18.90
2018-06-14T17:52:56.524Z,19.06
2018-06-14T17:55:23.681Z,18.96
2018-06-14T17:57:50.862Z,18.86
2018-06-14T18:00:18.509Z,19.06
2018-06-14T18:02:45.741Z,19.00
2018-06-14T18:05:12.917Z,18.90
2018-06-14T18:07:40.430Z,18.81
2018-06-14T18:10:07.393Z,18.89
2018-06-14T18:12:34.528Z,18.74
2018-06-14T18:15:01.705Z,18.75
2018-06-14T18:17:28.896Z,18.74
2018-06-14T18:19:56.079Z,18.81
2018-06-14T18:22:23.243Z,18.66
2018-06-14T18:24:50.399Z,18.54
2018-06-14T18:27:17.605Z,18.64
2018-06-14T18:29:44.798Z,18.60
2018-06-14T18:32:11.909Z,18.68
2018-06-14T18:34:39.054Z,18.59
2018-06-14T18:37:06.216Z,18.27
2018-06-14T18:39:33.416Z,18.21
2018-06-14T18:42:00.602Z,17.93
2018-06-14T18:44:27.793Z,17.70
2018-06-14T18:46:54.964Z,17.63
2018-06-14T18:49:22.168Z,17.43
2018-06-14T18:51:49.345Z,17.25
2018-06-14T18:54:16.512Z,17.30
2018-06-14T18:56:43.727Z,17.22
2018-06-14T18:59:10.869Z,17.15
2018-06-14T19:01:38.080Z,17.21
2018-06-14T19:04:05.405Z,17.07
2018-06-14T19:06:32.576Z,16.84
2018-06-14T19:08:59.750Z,16.81
2018-06-14T19:11:26.941Z,16.78
2018-06-14T19:13:54.136Z,16.88
2018-06-14T19:16:21.321Z,16.91
2018-06-14T19:18:49.435Z,16.84
2018-06-14T19:21:16.624Z,16.75
2018-06-14T19:23:43.766Z,16.79
2018-06-14T19:26:10.955Z,16.88
2018-06-14T19:28:38.209Z,16.83
2018-06-14T19:31:05.401Z,16.83
2018-06-14T19:33:32.928Z,16.73
2018-06-14T19:36:00.127Z,16.72
2018-06-14T19:38:27.531Z,16.75
2018-06-14T19:40:54.654Z,16.80
2018-06-14T19:43:21.844Z,16.66
2018-06-14T19:45:49.044Z,16.45
2018-06-14T19:48:16.274Z,16.31
2018-06-14T19:50:43.477Z,16.33
2018-06-14T19:53:10.765Z,16.14
2018-06-14T19:55:38.028Z,16.01
2018-06-14T19:58:05.253Z,16.03
2018-06-14T20:00:32.429Z,15.93
2018-06-14T20:02:59.629Z,15.91
2018-06-14T20:05:26.838Z,16.00
2018-06-14T20:07:54.028Z,16.01
2018-06-14T20:10:21.247Z,16.17
2018-06-14T20:12:48.376Z,15.61
2018-06-14T20:15:15.531Z,15.27
2018-06-14T20:17:42.754Z,14.70
2018-06-14T20:20:10.261Z,14.88
2018-06-14T20:22:37.467Z,14.79
2018-06-14T20:25:04.876Z,14.83
2018-06-14T20:27:32.111Z,14.65
2018-06-14T20:29:59.300Z,14.76
2018-06-14T20:32:26.689Z,14.82
2018-06-14T20:34:53.801Z,14.75
2018-06-14T20:37:21.080Z,14.85
2018-06-14T20:39:48.253Z,14.84
2018-06-14T20:42:15.408Z,14.81
2018-06-14T20:44:42.559Z,14.84
2018-06-14T20:47:09.716Z,14.67
2018-06-14T20:49:38.257Z,14.79
2018-06-14T20:52:05.438Z,14.96
2018-06-14T20:54:32.614Z,14.73
2018-06-14T20:56:59.824Z,14.56
2018-06-14T20:59:26.930Z,14.05
2018-06-14T21:01:54.085Z,14.04
2018-06-14T21:04:21.236Z,14.19
2018-06-14T21:06:48.389Z,14.18
2018-06-14T21:09:15.549Z,14.06
2018-06-14T21:11:42.776Z,14.08
2018-06-14T21:14:09.926Z,14.01
2018-06-14T21:16:37.300Z,13.34
2018-06-14T21:19:04.546Z,13.25
2018-06-14T21:21:31.698Z,13.45
2018-06-14T21:23:59.168Z,13.22
2018-06-14T21:26:26.329Z,13.60
2018-06-14T21:28:53.619Z,13.38
2018-06-14T21:31:20.766Z,13.20
2018-06-14T21:33:47.943Z,13.30
2018-06-14T21:36:15.072Z,13.18
2018-06-14T21:38:42.136Z,13.35
2018-06-14T21:41:09.280Z,13.43
2018-06-14T21:43:36.384Z,13.13
2018-06-14T21:46:03.957Z,13.20
2018-06-14T21:48:31.096Z,13.12
2018-06-14T21:50:58.229Z,12.87
2018-06-14T21:53:25.377Z,12.51
2018-06-14T21:55:52.562Z,12.92
2018-06-14T21:58:19.698Z,12.99
2018-06-14T22:00:46.866Z,13.08
2018-06-14T22:03:19.798Z,13.06
2018-06-14T22:05:46.948Z,12.81
2018-06-14T22:08:14.141Z,13.14
2018-06-14T22:10:41.310Z,12.94
2018-06-14T22:13:08.441Z,12.92
2018-06-14T22:15:35.573Z,13.17
2018-06-14T22:18:02.753Z,13.19
2018-06-14T22:20:29.924Z,12.86
2018-06-14T22:22:57.091Z,13.15
2018-06-14T22:25:24.269Z,12.94
2018-06-14T22:27:51.399Z,12.76
2018-06-14T22:30:18.567Z,12.58
2018-06-14T22:32:46.136Z,12.53
2018-06-14T22:35:22.892Z,12.17
2018-06-14T22:37:50.005Z,12.01
2018-06-14T22:40:17.160Z,12.26
2018-06-14T22:42:44.304Z,12.39
2018-06-14T22:45:11.380Z,12.15
2018-06-14T22:47:38.487Z,12.08
2018-06-14T22:50:05.642Z,12.13
2018-06-14T22:52:52.101Z,11.90
2018-06-14T22:55:20.536Z,11.71
2018-06-14T22:57:48.015Z,11.76
2018-06-14T23:01:22.467Z,11.52
2018-06-14T23:03:49.656Z,11.93
2018-06-14T23:06:16.736Z,12.08
2018-06-14T23:08:43.861Z,12.25
2018-06-14T23:11:17.180Z,11.79
2018-06-14T23:13:44.329Z,11.57
2018-06-14T23:16:11.464Z,11.80
2018-06-14T23:18:38.584Z,11.76
2018-06-14T23:21:05.756Z,11.83
2018-06-14T23:23:32.911Z,11.95
2018-06-14T23:26:00.077Z,11.72
2018-06-14T23:28:27.222Z,11.83
2018-06-14T23:30:54.301Z,11.76
2018-06-14T23:33:21.403Z,11.60
2018-06-14T23:35:48.549Z,11.61
2018-06-14T23:38:15.644Z,11.73
2018-06-14T23:40:42.859Z,11.81
2018-06-14T23:43:10.019Z,11.48
2018-06-14T23:45:37.188Z,11.28
2018-06-14T23:48:04.372Z,11.66
2018-06-14T23:50:31.512Z,11.37
2018-06-14T23:52:58.703Z,11.47
2018-06-14T23:55:25.868Z,11.48
2018-06-14T23:57:52.958Z,11.45
